createdAt,value
2023-02-26T19:51:23.889Z,6.38
2023-02-26T19:54:05.144Z,6.55
2023-02-26T19:56:33.608Z,6.50
2023-02-26T19:59:03.515Z,6.61
2023-02-26T20:01:31.972Z,6.63
2023-02-26T20:04:01.079Z,6.27
2023-02-26T20:06:32.601Z,6.64
2023-02-26T20:09:01.187Z,6.73
2023-02-26T20:11:29.669Z,6.72
2023-02-26T20:13:57.649Z,6.52
2023-02-26T20:16:27.828Z,6.66
2023-02-26T20:18:55.992Z,6.71
2023-02-26T20:21:24.696Z,6.65
2023-02-26T20:23:54.961Z,6.67
2023-02-26T20:26:23.137Z,6.66
2023-02-26T20:28:51.615Z,6.67
2023-02-26T20:31:20.012Z,6.47
2023-02-26T20:33:48.203Z,6.40
2023-02-26T20:36:16.501Z,6.69
2023-02-26T20:38:44.987Z,6.73
2023-02-26T20:41:16.854Z,6.71
2023-02-26T20:43:45.497Z,6.53
2023-02-26T20:46:14.178Z,6.47
2023-02-26T20:48:44.120Z,6.73
2023-02-26T20:51:13.210Z,6.81
2023-02-26T20:53:41.188Z,6.85
2023-02-26T20:56:09.531Z,6.84
2023-02-26T20:58:39.543Z,6.94
2023-02-26T21:01:07.576Z,6.84
2023-02-26T21:03:35.651Z,6.76
2023-02-26T21:06:03.978Z,6.78
2023-02-26T21:08:33.503Z,6.85
2023-02-26T21:11:02.119Z,6.70
2023-02-26T21:13:30.412Z,6.97
2023-02-26T21:16:00.955Z,6.88
2023-02-26T21:18:29.009Z,6.76
2023-02-26T21:20:57.370Z,6.70
2023-02-26T21:23:25.409Z,6.53
2023-02-26T21:25:53.492Z,6.68
2023-02-26T21:28:21.743Z,6.76
2023-02-26T21:30:52.652Z,6.78
2023-02-26T21:33:22.383Z,6.90
2023-02-26T21:35:51.620Z,6.82
2023-02-26T21:38:19.753Z,6.61
2023-02-26T21:40:48.983Z,6.69
2023-02-26T21:43:17.635Z,6.49
2023-02-26T21:45:45.668Z,6.30
2023-02-26T21:48:13.997Z,6.28
2023-02-26T21:50:43.471Z,6.19
2023-02-26T21:53:11.490Z,6.11
2023-02-26T21:55:39.773Z,5.93
2023-02-26T21:58:08.049Z,5.75
2023-02-26T22:00:36.013Z,5.77
2023-02-26T22:03:04.294Z,5.62
2023-02-26T22:05:32.308Z,5.63
2023-02-26T22:08:01.727Z,5.70
2023-02-26T22:10:30.147Z,5.54
2023-02-26T22:12:58.245Z,5.79
2023-02-26T22:15:26.449Z,5.73
2023-02-26T22:17:54.692Z,5.91
2023-02-26T22:20:22.873Z,5.89
2023-02-26T22:22:51.846Z,5.87
2023-02-26T22:25:21.453Z,5.93
2023-02-26T22:27:49.519Z,5.73
2023-02-26T22:30:18.009Z,5.95
2023-02-26T22:32:46.866Z,5.90
2023-02-26T22:35:14.940Z,5.90
2023-02-26T22:37:43.358Z,5.79
2023-02-26T22:40:13.649Z,6.05
2023-02-26T22:42:44.389Z,6.01
2023-02-26T22:45:17.167Z,5.96
2023-02-26T22:47:45.617Z,6.03
2023-02-26T22:50:15.364Z,5.93
2023-02-26T22:52:43.733Z,5.67
2023-02-26T22:55:12.680Z,5.91
2023-02-26T22:57:42.288Z,5.86
2023-02-26T23:00:15.031Z,5.78
2023-02-26T23:02:43.456Z,5.70
2023-02-26T23:05:12.179Z,5.56
2023-02-26T23:07:41.596Z,5.76
2023-02-26T23:10:12.635Z,5.69
2023-02-26T23:12:42.469Z,5.77
2023-02-26T23:15:11.863Z,5.80
2023-02-26T23:17:39.835Z,5.66
2023-02-26T23:20:10.522Z,5.53
2023-02-26T23:22:39.021Z,5.31
2023-02-26T23:25:07.553Z,5.44
2023-02-26T23:27:35.709Z,5.50
2023-02-26T23:30:05.978Z,5.61
2023-02-26T23:32:34.027Z,5.66
2023-02-26T23:35:02.262Z,5.60
2023-02-26T23:37:30.924Z,5.63
2023-02-26T23:39:58.866Z,5.46
2023-02-26T23:42:27.093Z,5.44
2023-02-26T23:44:55.122Z,5.54
2023-02-26T23:47:24.578Z,5.48
2023-02-26T23:49:52.632Z,5.53
2023-02-26T23:52:20.925Z,5.75
2023-02-26T23:54:49.088Z,5.77
2023-02-26T23:57:17.293Z,5.86
2023-02-26T23:59:45.502Z,5.86
